sensor_id;sensor_type;location;lat;lon;timestamp;P1;durP1;ratioP1;P2;durP2;ratioP2
71083;SDS011;58741;52.672;13.548;2023-05-23T00:01:29;0.65;;;0.60;;
71083;SDS011;58741;52.672;13.548;2023-05-23T00:03:58;0.75;;;0.73;;
71083;SDS011;58741;52.672;13.548;2023-05-23T00:06:23;0.60;;;0.57;;
71083;SDS011;58741;52.672;13.548;2023-05-23T00:08:49;1.13;;;0.82;;
71083;SDS011;58741;52.672;13.548;2023-05-23T00:11:15;0.45;;;0.45;;
71083;SDS011;58741;52.672;13.548;2023-05-23T00:13:41;0.40;;;0.40;;
71083;SDS011;58741;52.672;13.548;2023-05-23T00:16:07;0.93;;;0.70;;
71083;SDS011;58741;52.672;13.548;2023-05-23T00:18:36;0.85;;;0.75;;
71083;SDS011;58741;52.672;13.548;2023-05-23T00:21:04;1.90;;;0.77;;
71083;SDS011;58741;52.672;13.548;2023-05-23T00:23:29;0.60;;;0.40;;
71083;SDS011;58741;52.672;13.548;2023-05-23T00:25:57;1.40;;;0.85;;
71083;SDS011;58741;52.672;13.548;2023-05-23T00:28:24;2.25;;;0.73;;
71083;SDS011;58741;52.672;13.548;2023-05-23T00:30:50;0.98;;;0.70;;
71083;SDS011;58741;52.672;13.548;2023-05-23T00:33:16;1.20;;;0.70;;
71083;SDS011;58741;52.672;13.548;2023-05-23T00:35:42;0.85;;;0.40;;
71083;SDS011;58741;52.672;13.548;2023-05-23T00:38:08;1.23;;;0.60;;
71083;SDS011;58741;52.672;13.548;2023-05-23T00:40:35;1.08;;;0.60;;
71083;SDS011;58741;52.672;13.548;2023-05-23T00:43:01;1.15;;;0.70;;
71083;SDS011;58741;52.672;13.548;2023-05-23T00:45:27;0.63;;;0.52;;
71083;SDS011;58741;52.672;13.548;2023-05-23T00:47:52;1.38;;;0.70;;
71083;SDS011;58741;52.672;13.548;2023-05-23T00:50:18;0.65;;;0.60;;
71083;SDS011;58741;52.672;13.548;2023-05-23T00:52:45;0.40;;;0.40;;
71083;SDS011;58741;52.672;13.548;2023-05-23T00:55:13;0.80;;;0.70;;
71083;SDS011;58741;52.672;13.548;2023-05-23T00:57:40;0.50;;;0.50;;
71083;SDS011;58741;52.672;13.548;2023-05-23T01:00:08;1.27;;;0.60;;
71083;SDS011;58741;52.672;13.548;2023-05-23T01:02:39;1.45;;;0.90;;
71083;SDS011;58741;52.672;13.548;2023-05-23T01:05:10;3.55;;;0.90;;
71083;SDS011;58741;52.672;13.548;2023-05-23T01:07:39;2.15;;;0.60;;
71083;SDS011;58741;52.672;13.548;2023-05-23T01:10:05;1.10;;;0.80;;
71083;SDS011;58741;52.672;13.548;2023-05-23T01:15:51;0.85;;;0.70;;
71083;SDS011;58741;52.672;13.548;2023-05-23T01:18:28;1.98;;;0.90;;
71083;SDS011;58741;52.672;13.548;2023-05-23T01:21:06;1.20;;;1.05;;
71083;SDS011;58741;52.672;13.548;2023-05-23T01:29:47;1.48;;;1.00;;
71083;SDS011;58741;52.672;13.548;2023-05-23T01:32:13;1.17;;;0.60;;
71083;SDS011;58741;52.672;13.548;2023-05-23T01:34:40;0.95;;;0.70;;
71083;SDS011;58741;52.672;13.548;2023-05-23T01:37:08;2.22;;;0.85;;
71083;SDS011;58741;52.672;13.548;2023-05-23T01:39:35;2.03;;;0.93;;
71083;SDS011;58741;52.672;13.548;2023-05-23T01:42:01;0.65;;;0.65;;
71083;SDS011;58741;52.672;13.548;2023-05-23T01:44:28;1.85;;;0.88;;
71083;SDS011;58741;52.672;13.548;2023-05-23T01:46:54;0.50;;;0.50;;
71083;SDS011;58741;52.672;13.548;2023-05-23T01:49:20;1.25;;;0.73;;
71083;SDS011;58741;52.672;13.548;2023-05-23T01:51:46;1.90;;;1.17;;
71083;SDS011;58741;52.672;13.548;2023-05-23T01:54:13;0.65;;;0.60;;
71083;SDS011;58741;52.672;13.548;2023-05-23T01:56:44;1.40;;;0.50;;
71083;SDS011;58741;52.672;13.548;2023-05-23T01:59:10;0.82;;;0.60;;
71083;SDS011;58741;52.672;13.548;2023-05-23T02:01:36;1.05;;;0.55;;
71083;SDS011;58741;52.672;13.548;2023-05-23T02:04:03;0.82;;;0.75;;
71083;SDS011;58741;52.672;13.548;2023-05-23T02:06:29;0.82;;;0.75;;
71083;SDS011;58741;52.672;13.548;2023-05-23T02:08:55;1.00;;;0.90;;
71083;SDS011;58741;52.672;13.548;2023-05-23T02:11:22;0.57;;;0.55;;
71083;SDS011;58741;52.672;13.548;2023-05-23T02:13:48;1.60;;;0.70;;
71083;SDS011;58741;52.672;13.548;2023-05-23T02:16:14;0.50;;;0.50;;
71083;SDS011;58741;52.672;13.548;2023-05-23T02:18:40;0.98;;;0.75;;
71083;SDS011;58741;52.672;13.548;2023-05-23T02:21:05;1.45;;;0.70;;
71083;SDS011;58741;52.672;13.548;2023-05-23T02:23:31;0.63;;;0.50;;
71083;SDS011;58741;52.672;13.548;2023-05-23T02:25:56;1.80;;;0.90;;
71083;SDS011;58741;52.672;13.548;2023-05-23T02:28:22;2.75;;;0.85;;
71083;SDS011;58741;52.672;13.548;2023-05-23T02:30:48;1.08;;;0.60;;
71083;SDS011;58741;52.672;13.548;2023-05-23T02:33:13;0.88;;;0.60;;
71083;SDS011;58741;52.672;13.548;2023-05-23T02:35:40;1.63;;;0.77;;
71083;SDS011;58741;52.672;13.548;2023-05-23T02:38:08;1.08;;;0.68;;
71083;SDS011;58741;52.672;13.548;2023-05-23T02:40:34;1.00;;;0.90;;
71083;SDS011;58741;52.672;13.548;2023-05-23T02:43:00;2.17;;;0.77;;
71083;SDS011;58741;52.672;13.548;2023-05-23T02:45:25;0.98;;;0.80;;
71083;SDS011;58741;52.672;13.548;2023-05-23T02:47:51;0.93;;;0.88;;
71083;SDS011;58741;52.672;13.548;2023-05-23T02:50:17;0.70;;;0.70;;
71083;SDS011;58741;52.672;13.548;2023-05-23T02:52:43;1.67;;;1.00;;
71083;SDS011;58741;52.672;13.548;2023-05-23T02:55:09;2.53;;;0.70;;
71083;SDS011;58741;52.672;13.548;2023-05-23T02:57:39;0.75;;;0.70;;
71083;SDS011;58741;52.672;13.548;2023-05-23T03:00:05;0.65;;;0.60;;
71083;SDS011;58741;52.672;13.548;2023-05-23T03:02:34;0.93;;;0.77;;
71083;SDS011;58741;52.672;13.548;2023-05-23T03:05:00;1.75;;;0.75;;
71083;SDS011;58741;52.672;13.548;2023-05-23T03:07:26;1.00;;;0.90;;
71083;SDS011;58741;52.672;13.548;2023-05-23T03:09:52;0.80;;;0.75;;
71083;SDS011;58741;52.672;13.548;2023-05-23T03:12:18;1.08;;;0.80;;
71083;SDS011;58741;52.672;13.548;2023-05-23T03:14:43;1.05;;;0.70;;
71083;SDS011;58741;52.672;13.548;2023-05-23T03:17:10;2.22;;;1.10;;
71083;SDS011;58741;52.672;13.548;2023-05-23T03:19:37;1.58;;;0.90;;
71083;SDS011;58741;52.672;13.548;2023-05-23T03:22:03;1.20;;;1.00;;
71083;SDS011;58741;52.672;13.548;2023-05-23T03:24:28;1.50;;;1.05;;
71083;SDS011;58741;52.672;13.548;2023-05-23T03:26:56;1.27;;;0.77;;
71083;SDS011;58741;52.672;13.548;2023-05-23T03:29:22;1.42;;;0.70;;
71083;SDS011;58741;52.672;13.548;2023-05-23T03:31:47;0.60;;;0.60;;
71083;SDS011;58741;52.672;13.548;2023-05-23T03:34:13;0.77;;;0.77;;
71083;SDS011;58741;52.672;13.548;2023-05-23T03:36:39;1.75;;;0.80;;
71083;SDS011;58741;52.672;13.548;2023-05-23T03:39:05;2.28;;;1.00;;
71083;SDS011;58741;52.672;13.548;2023-05-23T03:41:30;0.68;;;0.60;;
71083;SDS011;58741;52.672;13.548;2023-05-23T03:43:56;5.38;;;0.90;;
71083;SDS011;58741;52.672;13.548;2023-05-23T03:46:21;1.33;;;0.88;;
71083;SDS011;58741;52.672;13.548;2023-05-23T03:48:47;1.17;;;0.73;;
71083;SDS011;58741;52.672;13.548;2023-05-23T03:51:13;1.17;;;0.73;;
71083;SDS011;58741;52.672;13.548;2023-05-23T03:53:39;2.88;;;1.02;;
71083;SDS011;58741;52.672;13.548;2023-05-23T03:56:05;0.82;;;0.70;;
71083;SDS011;58741;52.672;13.548;2023-05-23T03:58:31;3.20;;;0.73;;
71083;SDS011;58741;52.672;13.548;2023-05-23T04:01:00;0.80;;;0.70;;
71083;SDS011;58741;52.672;13.548;2023-05-23T04:03:27;0.88;;;0.80;;
71083;SDS011;58741;52.672;13.548;2023-05-23T04:05:56;3.35;;;1.33;;
71083;SDS011;58741;52.672;13.548;2023-05-23T04:08:23;1.67;;;0.95;;
71083;SDS011;58741;52.672;13.548;2023-05-23T04:10:49;0.90;;;0.77;;
71083;SDS011;58741;52.672;13.548;2023-05-23T04:13:15;3.75;;;0.80;;
71083;SDS011;58741;52.672;13.548;2023-05-23T04:15:41;3.35;;;0.80;;
71083;SDS011;58741;52.672;13.548;2023-05-23T04:18:09;1.65;;;1.08;;
71083;SDS011;58741;52.672;13.548;2023-05-23T04:20:35;0.70;;;0.70;;
71083;SDS011;58741;52.672;13.548;2023-05-23T04:23:02;1.42;;;1.00;;
71083;SDS011;58741;52.672;13.548;2023-05-23T04:25:30;2.05;;;1.02;;
71083;SDS011;58741;52.672;13.548;2023-05-23T04:28:17;0.60;;;0.60;;
71083;SDS011;58741;52.672;13.548;2023-05-23T04:30:43;1.38;;;0.73;;
71083;SDS011;58741;52.672;13.548;2023-05-23T04:33:09;1.08;;;0.63;;
71083;SDS011;58741;52.672;13.548;2023-05-23T04:35:35;1.23;;;0.75;;
71083;SDS011;58741;52.672;13.548;2023-05-23T04:38:04;1.05;;;0.77;;
71083;SDS011;58741;52.672;13.548;2023-05-23T04:40:30;2.83;;;0.98;;
71083;SDS011;58741;52.672;13.548;2023-05-23T04:43:05;1.10;;;0.90;;
71083;SDS011;58741;52.672;13.548;2023-05-23T04:45:36;1.08;;;0.90;;
71083;SDS011;58741;52.672;13.548;2023-05-23T04:48:22;1.02;;;0.93;;
71083;SDS011;58741;52.672;13.548;2023-05-23T04:50:48;0.80;;;0.77;;
71083;SDS011;58741;52.672;13.548;2023-05-23T04:53:15;2.13;;;1.10;;
71083;SDS011;58741;52.672;13.548;2023-05-23T04:55:41;1.23;;;0.90;;
71083;SDS011;58741;52.672;13.548;2023-05-23T04:58:11;1.52;;;1.10;;
71083;SDS011;58741;52.672;13.548;2023-05-23T05:00:37;2.65;;;1.17;;
71083;SDS011;58741;52.672;13.548;2023-05-23T05:03:03;2.47;;;0.85;;
71083;SDS011;58741;52.672;13.548;2023-05-23T05:05:29;2.17;;;1.20;;
71083;SDS011;58741;52.672;13.548;2023-05-23T05:07:55;3.38;;;1.40;;
71083;SDS011;58741;52.672;13.548;2023-05-23T05:10:21;1.00;;;0.77;;
71083;SDS011;58741;52.672;13.548;2023-05-23T05:12:46;2.78;;;1.15;;
71083;SDS011;58741;52.672;13.548;2023-05-23T05:15:16;4.28;;;1.40;;
71083;SDS011;58741;52.672;13.548;2023-05-23T05:17:45;2.58;;;1.27;;
71083;SDS011;58741;52.672;13.548;2023-05-23T05:20:13;1.65;;;1.20;;
71083;SDS011;58741;52.672;13.548;2023-05-23T05:22:39;2.13;;;1.13;;
71083;SDS011;58741;52.672;13.548;2023-05-23T05:25:05;1.15;;;1.05;;
71083;SDS011;58741;52.672;13.548;2023-05-23T05:27:32;2.03;;;1.30;;
71083;SDS011;58741;52.672;13.548;2023-05-23T05:29:59;4.18;;;0.93;;
71083;SDS011;58741;52.672;13.548;2023-05-23T05:32:30;2.15;;;1.15;;
71083;SDS011;58741;52.672;13.548;2023-05-23T05:34:59;1.20;;;0.85;;
71083;SDS011;58741;52.672;13.548;2023-05-23T05:37:26;0.73;;;0.73;;
71083;SDS011;58741;52.672;13.548;2023-05-23T05:39:53;1.20;;;0.90;;
71083;SDS011;58741;52.672;13.548;2023-05-23T05:42:19;1.00;;;0.90;;
71083;SDS011;58741;52.672;13.548;2023-05-23T05:44:46;1.10;;;0.95;;
71083;SDS011;58741;52.672;13.548;2023-05-23T05:47:12;1.55;;;1.33;;
71083;SDS011;58741;52.672;13.548;2023-05-23T05:49:38;1.50;;;1.10;;
71083;SDS011;58741;52.672;13.548;2023-05-23T05:52:05;1.33;;;1.00;;
71083;SDS011;58741;52.672;13.548;2023-05-23T05:54:33;2.25;;;1.33;;
71083;SDS011;58741;52.672;13.548;2023-05-23T05:56:58;1.27;;;0.77;;
71083;SDS011;58741;52.672;13.548;2023-05-23T05:59:25;0.90;;;0.85;;
71083;SDS011;58741;52.672;13.548;2023-05-23T06:01:51;1.60;;;0.88;;
71083;SDS011;58741;52.672;13.548;2023-05-23T06:04:17;1.77;;;1.27;;
71083;SDS011;58741;52.672;13.548;2023-05-23T06:06:43;3.47;;;1.58;;
71083;SDS011;58741;52.672;13.548;2023-05-23T06:09:09;1.20;;;1.08;;
71083;SDS011;58741;52.672;13.548;2023-05-23T06:11:35;1.55;;;1.20;;
71083;SDS011;58741;52.672;13.548;2023-05-23T06:14:06;0.63;;;0.63;;
71083;SDS011;58741;52.672;13.548;2023-05-23T06:16:34;1.67;;;1.25;;
71083;SDS011;58741;52.672;13.548;2023-05-23T06:18:59;1.63;;;1.15;;
71083;SDS011;58741;52.672;13.548;2023-05-23T06:21:27;1.95;;;1.00;;
71083;SDS011;58741;52.672;13.548;2023-05-23T06:24:54;2.65;;;0.88;;
71083;SDS011;58741;52.672;13.548;2023-05-23T06:27:19;0.63;;;0.63;;
71083;SDS011;58741;52.672;13.548;2023-05-23T06:29:45;1.40;;;1.00;;
71083;SDS011;58741;52.672;13.548;2023-05-23T06:32:10;1.20;;;1.08;;
71083;SDS011;58741;52.672;13.548;2023-05-23T06:34:36;1.20;;;1.02;;
71083;SDS011;58741;52.672;13.548;2023-05-23T06:37:01;1.55;;;1.20;;
71083;SDS011;58741;52.672;13.548;2023-05-23T06:39:27;1.90;;;1.40;;
71083;SDS011;58741;52.672;13.548;2023-05-23T06:41:53;1.85;;;1.38;;
71083;SDS011;58741;52.672;13.548;2023-05-23T06:44:19;3.55;;;1.50;;
71083;SDS011;58741;52.672;13.548;2023-05-23T06:46:46;1.65;;;1.33;;
71083;SDS011;58741;52.672;13.548;2023-05-23T06:49:12;1.23;;;1.02;;
71083;SDS011;58741;52.672;13.548;2023-05-23T06:51:38;3.42;;;1.02;;
71083;SDS011;58741;52.672;13.548;2023-05-23T06:54:16;1.92;;;1.10;;
71083;SDS011;58741;52.672;13.548;2023-05-23T06:56:42;1.95;;;1.17;;
71083;SDS011;58741;52.672;13.548;2023-05-23T06:59:08;1.63;;;1.00;;
71083;SDS011;58741;52.672;13.548;2023-05-23T07:01:34;1.55;;;1.15;;
71083;SDS011;58741;52.672;13.548;2023-05-23T07:03:59;1.25;;;1.08;;
71083;SDS011;58741;52.672;13.548;2023-05-23T07:06:25;1.52;;;1.08;;
71083;SDS011;58741;52.672;13.548;2023-05-23T07:08:55;2.10;;;1.10;;
71083;SDS011;58741;52.672;13.548;2023-05-23T07:11:21;1.80;;;1.10;;
71083;SDS011;58741;52.672;13.548;2023-05-23T07:14:16;1.08;;;0.88;;
71083;SDS011;58741;52.672;13.548;2023-05-23T07:16:43;2.28;;;1.20;;
71083;SDS011;58741;52.672;13.548;2023-05-23T07:19:09;1.77;;;1.13;;
71083;SDS011;58741;52.672;13.548;2023-05-23T07:21:43;1.48;;;1.10;;
71083;SDS011;58741;52.672;13.548;2023-05-23T07:24:10;0.95;;;0.70;;
71083;SDS011;58741;52.672;13.548;2023-05-23T07:26:36;2.58;;;1.00;;
71083;SDS011;58741;52.672;13.548;2023-05-23T07:29:01;1.02;;;0.93;;
71083;SDS011;58741;52.672;13.548;2023-05-23T07:31:27;1.30;;;0.98;;
71083;SDS011;58741;52.672;13.548;2023-05-23T07:33:56;1.13;;;1.02;;
71083;SDS011;58741;52.672;13.548;2023-05-23T07:36:27;1.40;;;1.30;;
71083;SDS011;58741;52.672;13.548;2023-05-23T07:38:53;6.65;;;1.60;;
71083;SDS011;58741;52.672;13.548;2023-05-23T07:41:19;2.10;;;1.15;;
71083;SDS011;58741;52.672;13.548;2023-05-23T07:43:44;3.60;;;1.23;;
71083;SDS011;58741;52.672;13.548;2023-05-23T07:46:10;1.80;;;1.40;;
71083;SDS011;58741;52.672;13.548;2023-05-23T07:48:36;4.13;;;1.48;;
71083;SDS011;58741;52.672;13.548;2023-05-23T07:51:02;2.92;;;1.50;;
71083;SDS011;58741;52.672;13.548;2023-05-23T07:53:28;1.38;;;1.10;;
71083;SDS011;58741;52.672;13.548;2023-05-23T07:55:54;1.17;;;1.00;;
71083;SDS011;58741;52.672;13.548;2023-05-23T07:58:21;1.35;;;1.25;;
71083;SDS011;58741;52.672;13.548;2023-05-23T08:00:47;1.33;;;1.20;;
71083;SDS011;58741;52.672;13.548;2023-05-23T08:03:31;3.22;;;1.80;;
71083;SDS011;58741;52.672;13.548;2023-05-23T08:06:04;2.30;;;1.50;;
71083;SDS011;58741;52.672;13.548;2023-05-23T08:08:31;1.67;;;1.40;;
71083;SDS011;58741;52.672;13.548;2023-05-23T08:10:57;1.67;;;1.30;;
71083;SDS011;58741;52.672;13.548;2023-05-23T08:14:03;3.00;;;1.27;;
71083;SDS011;58741;52.672;13.548;2023-05-23T08:16:49;1.90;;;1.10;;
71083;SDS011;58741;52.672;13.548;2023-05-23T08:19:19;1.30;;;1.20;;
71083;SDS011;58741;52.672;13.548;2023-05-23T08:21:45;0.88;;;0.88;;
71083;SDS011;58741;52.672;13.548;2023-05-23T08:24:11;1.17;;;0.80;;
71083;SDS011;58741;52.672;13.548;2023-05-23T08:26:38;1.75;;;1.20;;
71083;SDS011;58741;52.672;13.548;2023-05-23T08:29:07;3.22;;;1.17;;
71083;SDS011;58741;52.672;13.548;2023-05-23T08:31:34;1.77;;;1.20;;
71083;SDS011;58741;52.672;13.548;2023-05-23T08:34:00;3.03;;;1.52;;
71083;SDS011;58741;52.672;13.548;2023-05-23T08:36:27;2.17;;;1.30;;
71083;SDS011;58741;52.672;13.548;2023-05-23T08:38:53;1.15;;;0.95;;
71083;SDS011;58741;52.672;13.548;2023-05-23T08:41:28;0.98;;;0.82;;
71083;SDS011;58741;52.672;13.548;2023-05-23T08:44:01;1.60;;;1.00;;
71083;SDS011;58741;52.672;13.548;2023-05-23T08:46:32;1.67;;;1.10;;
71083;SDS011;58741;52.672;13.548;2023-05-23T08:49:00;1.10;;;1.00;;
71083;SDS011;58741;52.672;13.548;2023-05-23T08:51:27;1.45;;;1.10;;
71083;SDS011;58741;52.672;13.548;2023-05-23T08:53:56;1.50;;;1.15;;
71083;SDS011;58741;52.672;13.548;2023-05-23T08:56:24;3.00;;;1.88;;
71083;SDS011;58741;52.672;13.548;2023-05-23T08:58:50;1.83;;;1.58;;
71083;SDS011;58741;52.672;13.548;2023-05-23T09:01:18;2.38;;;1.60;;
71083;SDS011;58741;52.672;13.548;2023-05-23T09:03:49;1.50;;;0.93;;
71083;SDS011;58741;52.672;13.548;2023-05-23T09:06:20;1.10;;;1.00;;
71083;SDS011;58741;52.672;13.548;2023-05-23T09:08:46;2.00;;;1.50;;
71083;SDS011;58741;52.672;13.548;2023-05-23T09:11:13;1.50;;;1.27;;
71083;SDS011;58741;52.672;13.548;2023-05-23T09:13:41;1.42;;;1.20;;
71083;SDS011;58741;52.672;13.548;2023-05-23T09:16:09;2.05;;;1.50;;
71083;SDS011;58741;52.672;13.548;2023-05-23T09:18:44;1.65;;;1.33;;
71083;SDS011;58741;52.672;13.548;2023-05-23T09:21:13;1.35;;;0.93;;
71083;SDS011;58741;52.672;13.548;2023-05-23T09:24:08;2.65;;;1.42;;
71083;SDS011;58741;52.672;13.548;2023-05-23T09:26:34;1.65;;;1.33;;
71083;SDS011;58741;52.672;13.548;2023-05-23T09:29:03;1.77;;;1.30;;
71083;SDS011;58741;52.672;13.548;2023-05-23T09:31:30;2.13;;;1.27;;
71083;SDS011;58741;52.672;13.548;2023-05-23T09:33:57;1.77;;;1.33;;
71083;SDS011;58741;52.672;13.548;2023-05-23T09:36:27;1.25;;;1.00;;
71083;SDS011;58741;52.672;13.548;2023-05-23T09:39:01;1.33;;;1.20;;
71083;SDS011;58741;52.672;13.548;2023-05-23T09:41:33;1.38;;;1.27;;
71083;SDS011;58741;52.672;13.548;2023-05-23T09:44:04;1.48;;;1.20;;
71083;SDS011;58741;52.672;13.548;2023-05-23T09:46:33;1.35;;;1.17;;
71083;SDS011;58741;52.672;13.548;2023-05-23T09:49:01;3.40;;;1.60;;
71083;SDS011;58741;52.672;13.548;2023-05-23T09:51:27;1.75;;;1.65;;
71083;SDS011;58741;52.672;13.548;2023-05-23T09:53:53;2.90;;;1.98;;
71083;SDS011;58741;52.672;13.548;2023-05-23T09:56:20;3.70;;;1.75;;
71083;SDS011;58741;52.672;13.548;2023-05-23T09:58:50;1.65;;;1.42;;
71083;SDS011;58741;52.672;13.548;2023-05-23T10:01:17;2.53;;;1.63;;
71083;SDS011;58741;52.672;13.548;2023-05-23T10:03:49;2.90;;;2.30;;
71083;SDS011;58741;52.672;13.548;2023-05-23T10:06:22;2.83;;;1.80;;
71083;SDS011;58741;52.672;13.548;2023-05-23T10:08:55;2.60;;;1.27;;
71083;SDS011;58741;52.672;13.548;2023-05-23T10:13:58;2.17;;;1.40;;
71083;SDS011;58741;52.672;13.548;2023-05-23T10:16:33;1.50;;;1.35;;
71083;SDS011;58741;52.672;13.548;2023-05-23T10:19:24;2.10;;;1.60;;
71083;SDS011;58741;52.672;13.548;2023-05-23T10:21:59;1.80;;;1.42;;
71083;SDS011;58741;52.672;13.548;2023-05-23T10:24:28;3.47;;;1.52;;
71083;SDS011;58741;52.672;13.548;2023-05-23T10:26:53;1.90;;;1.50;;
71083;SDS011;58741;52.672;13.548;2023-05-23T10:29:20;2.53;;;1.65;;
71083;SDS011;58741;52.672;13.548;2023-05-23T10:31:47;2.10;;;1.50;;
71083;SDS011;58741;52.672;13.548;2023-05-23T10:34:19;3.00;;;1.45;;
71083;SDS011;58741;52.672;13.548;2023-05-23T10:37:01;1.42;;;1.33;;
71083;SDS011;58741;52.672;13.548;2023-05-23T10:47:45;1.58;;;1.40;;
71083;SDS011;58741;52.672;13.548;2023-05-23T10:50:13;1.45;;;1.13;;
71083;SDS011;58741;52.672;13.548;2023-05-23T10:52:41;1.65;;;1.35;;
71083;SDS011;58741;52.672;13.548;2023-05-23T10:55:14;2.22;;;1.63;;
71083;SDS011;58741;52.672;13.548;2023-05-23T10:57:42;1.80;;;1.25;;
71083;SDS011;58741;52.672;13.548;2023-05-23T11:00:14;2.15;;;1.63;;
71083;SDS011;58741;52.672;13.548;2023-05-23T11:02:53;2.28;;;1.45;;
71083;SDS011;58741;52.672;13.548;2023-05-23T11:05:23;1.95;;;1.55;;
71083;SDS011;58741;52.672;13.548;2023-05-23T11:08:08;3.78;;;1.38;;
71083;SDS011;58741;52.672;13.548;2023-05-23T11:13:16;1.20;;;1.10;;
71083;SDS011;58741;52.672;13.548;2023-05-23T11:15:42;2.50;;;1.73;;
71083;SDS011;58741;52.672;13.548;2023-05-23T11:18:10;2.35;;;1.42;;
71083;SDS011;58741;52.672;13.548;2023-05-23T11:20:51;2.95;;;1.52;;
71083;SDS011;58741;52.672;13.548;2023-05-23T11:28:07;2.65;;;1.52;;
71083;SDS011;58741;52.672;13.548;2023-05-23T11:30:34;1.73;;;1.40;;
71083;SDS011;58741;52.672;13.548;2023-05-23T11:33:06;2.55;;;1.55;;
71083;SDS011;58741;52.672;13.548;2023-05-23T11:35:36;2.30;;;1.80;;
71083;SDS011;58741;52.672;13.548;2023-05-23T11:38:02;2.38;;;1.52;;
71083;SDS011;58741;52.672;13.548;2023-05-23T11:40:38;2.30;;;1.40;;
71083;SDS011;58741;52.672;13.548;2023-05-23T11:43:07;1.77;;;1.60;;
71083;SDS011;58741;52.672;13.548;2023-05-23T11:45:38;1.88;;;1.40;;
71083;SDS011;58741;52.672;13.548;2023-05-23T11:48:05;11.02;;;1.88;;
71083;SDS011;58741;52.672;13.548;2023-05-23T11:50:42;3.65;;;1.83;;
71083;SDS011;58741;52.672;13.548;2023-05-23T11:53:09;3.17;;;1.77;;
71083;SDS011;58741;52.672;13.548;2023-05-23T11:55:35;2.60;;;1.65;;
71083;SDS011;58741;52.672;13.548;2023-05-23T11:58:04;1.20;;;1.08;;
71083;SDS011;58741;52.672;13.548;2023-05-23T12:00:29;1.75;;;1.35;;
71083;SDS011;58741;52.672;13.548;2023-05-23T12:02:55;1.65;;;1.52;;
71083;SDS011;58741;52.672;13.548;2023-05-23T12:05:21;1.67;;;1.45;;
71083;SDS011;58741;52.672;13.548;2023-05-23T12:07:47;1.83;;;1.45;;
71083;SDS011;58741;52.672;13.548;2023-05-23T12:10:14;2.53;;;1.75;;
71083;SDS011;58741;52.672;13.548;2023-05-23T12:13:51;4.68;;;1.35;;
71083;SDS011;58741;52.672;13.548;2023-05-23T12:16:17;1.30;;;1.20;;
71083;SDS011;58741;52.672;13.548;2023-05-23T12:18:43;1.83;;;1.40;;
71083;SDS011;58741;52.672;13.548;2023-05-23T12:21:08;1.17;;;1.00;;
71083;SDS011;58741;52.672;13.548;2023-05-23T12:23:34;2.58;;;1.60;;
71083;SDS011;58741;52.672;13.548;2023-05-23T12:26:03;3.25;;;2.00;;
71083;SDS011;58741;52.672;13.548;2023-05-23T12:28:35;2.58;;;2.00;;
71083;SDS011;58741;52.672;13.548;2023-05-23T12:31:17;2.03;;;1.70;;
71083;SDS011;58741;52.672;13.548;2023-05-23T12:33:45;2.17;;;1.70;;
71083;SDS011;58741;52.672;13.548;2023-05-23T12:36:12;2.28;;;1.85;;
71083;SDS011;58741;52.672;13.548;2023-05-23T12:38:38;3.35;;;2.33;;
71083;SDS011;58741;52.672;13.548;2023-05-23T12:41:17;2.60;;;2.00;;
71083;SDS011;58741;52.672;13.548;2023-05-23T12:43:50;3.70;;;2.85;;
71083;SDS011;58741;52.672;13.548;2023-05-23T12:46:21;5.32;;;3.03;;
71083;SDS011;58741;52.672;13.548;2023-05-23T12:48:47;5.63;;;3.70;;
71083;SDS011;58741;52.672;13.548;2023-05-23T12:51:13;8.50;;;3.90;;
71083;SDS011;58741;52.672;13.548;2023-05-23T12:53:39;6.00;;;3.78;;
71083;SDS011;58741;52.672;13.548;2023-05-23T12:56:05;6.70;;;3.28;;
71083;SDS011;58741;52.672;13.548;2023-05-23T12:58:31;4.63;;;3.17;;
71083;SDS011;58741;52.672;13.548;2023-05-23T13:00:57;7.63;;;3.80;;
71083;SDS011;58741;52.672;13.548;2023-05-23T13:03:23;6.28;;;4.20;;
71083;SDS011;58741;52.672;13.548;2023-05-23T13:05:49;5.97;;;3.88;;
71083;SDS011;58741;52.672;13.548;2023-05-23T13:08:15;8.48;;;3.45;;
71083;SDS011;58741;52.672;13.548;2023-05-23T13:10:41;7.45;;;3.88;;
71083;SDS011;58741;52.672;13.548;2023-05-23T13:13:07;6.00;;;3.75;;
71083;SDS011;58741;52.672;13.548;2023-05-23T13:15:32;8.50;;;3.75;;
71083;SDS011;58741;52.672;13.548;2023-05-23T13:17:58;6.18;;;3.40;;
71083;SDS011;58741;52.672;13.548;2023-05-23T13:20:24;8.15;;;3.97;;
71083;SDS011;58741;52.672;13.548;2023-05-23T13:22:54;4.38;;;3.30;;
71083;SDS011;58741;52.672;13.548;2023-05-23T13:25:22;9.27;;;4.13;;
71083;SDS011;58741;52.672;13.548;2023-05-23T13:27:49;4.35;;;3.13;;
71083;SDS011;58741;52.672;13.548;2023-05-23T13:30:14;5.38;;;2.72;;
71083;SDS011;58741;52.672;13.548;2023-05-23T13:32:40;8.23;;;3.80;;
71083;SDS011;58741;52.672;13.548;2023-05-23T13:35:06;9.43;;;3.50;;
71083;SDS011;58741;52.672;13.548;2023-05-23T13:37:32;5.13;;;3.50;;
71083;SDS011;58741;52.672;13.548;2023-05-23T13:40:00;6.05;;;3.67;;
71083;SDS011;58741;52.672;13.548;2023-05-23T13:42:27;7.93;;;4.13;;
71083;SDS011;58741;52.672;13.548;2023-05-23T13:44:53;3.55;;;3.08;;
71083;SDS011;58741;52.672;13.548;2023-05-23T13:47:18;6.18;;;3.55;;
71083;SDS011;58741;52.672;13.548;2023-05-23T13:49:44;5.95;;;3.63;;
71083;SDS011;58741;52.672;13.548;2023-05-23T13:52:10;7.50;;;4.40;;
71083;SDS011;58741;52.672;13.548;2023-05-23T13:54:36;3.78;;;2.65;;
71083;SDS011;58741;52.672;13.548;2023-05-23T13:57:02;7.03;;;3.67;;
71083;SDS011;58741;52.672;13.548;2023-05-23T13:59:28;5.90;;;3.50;;
71083;SDS011;58741;52.672;13.548;2023-05-23T14:01:54;5.68;;;3.42;;
71083;SDS011;58741;52.672;13.548;2023-05-23T14:04:19;7.07;;;2.97;;
71083;SDS011;58741;52.672;13.548;2023-05-23T14:06:45;4.50;;;2.85;;
71083;SDS011;58741;52.672;13.548;2023-05-23T14:09:11;4.43;;;3.42;;
71083;SDS011;58741;52.672;13.548;2023-05-23T14:11:37;7.25;;;3.80;;
71083;SDS011;58741;52.672;13.548;2023-05-23T14:14:03;8.18;;;4.10;;
71083;SDS011;58741;52.672;13.548;2023-05-23T14:16:29;4.72;;;3.10;;
71083;SDS011;58741;52.672;13.548;2023-05-23T14:18:55;4.47;;;2.97;;
71083;SDS011;58741;52.672;13.548;2023-05-23T14:21:21;5.43;;;3.08;;
71083;SDS011;58741;52.672;13.548;2023-05-23T14:23:46;6.13;;;3.67;;
71083;SDS011;58741;52.672;13.548;2023-05-23T14:26:12;6.80;;;4.00;;
71083;SDS011;58741;52.672;13.548;2023-05-23T14:28:38;6.18;;;3.92;;
71083;SDS011;58741;52.672;13.548;2023-05-23T14:31:04;6.50;;;4.07;;
71083;SDS011;58741;52.672;13.548;2023-05-23T14:33:30;7.55;;;3.70;;
71083;SDS011;58741;52.672;13.548;2023-05-23T14:35:55;6.53;;;3.33;;
71083;SDS011;58741;52.672;13.548;2023-05-23T14:38:21;5.07;;;3.03;;
71083;SDS011;58741;52.672;13.548;2023-05-23T14:40:47;5.10;;;2.63;;
71083;SDS011;58741;52.672;13.548;2023-05-23T14:43:13;5.15;;;3.13;;
71083;SDS011;58741;52.672;13.548;2023-05-23T14:45:39;6.47;;;3.60;;
71083;SDS011;58741;52.672;13.548;2023-05-23T14:48:05;5.55;;;3.13;;
71083;SDS011;58741;52.672;13.548;2023-05-23T14:50:31;4.00;;;2.67;;
71083;SDS011;58741;52.672;13.548;2023-05-23T14:52:57;2.95;;;2.00;;
71083;SDS011;58741;52.672;13.548;2023-05-23T14:55:23;2.70;;;1.88;;
71083;SDS011;58741;52.672;13.548;2023-05-23T14:57:49;3.00;;;1.85;;
71083;SDS011;58741;52.672;13.548;2023-05-23T15:00:15;5.47;;;3.00;;
71083;SDS011;58741;52.672;13.548;2023-05-23T15:02:41;4.38;;;2.72;;
71083;SDS011;58741;52.672;13.548;2023-05-23T15:05:07;5.00;;;2.47;;
71083;SDS011;58741;52.672;13.548;2023-05-23T15:07:33;3.78;;;2.08;;